sensor_id;sensor_type;location;lat;lon;timestamp;temperature;humidity
32877;DHT22;19226;51.600;8.034;2022-11-20T00:01:56;-2.00;99.90
32877;DHT22;19226;51.600;8.034;2022-11-20T00:07:10;-2.00;99.90
32877;DHT22;19226;51.600;8.034;2022-11-20T00:09:36;-2.10;99.90
32877;DHT22;19226;51.600;8.034;2022-11-20T00:12:02;-2.20;99.90
32877;DHT22;19226;51.600;8.034;2022-11-20T00:18:06;-2.40;99.90
32877;DHT22;19226;51.600;8.034;2022-11-20T00:21:01;-2.30;99.90
32877;DHT22;19226;51.600;8.034;2022-11-20T00:23:50;-2.30;99.90
32877;DHT22;19226;51.600;8.034;2022-11-20T00:26:35;-2.30;99.90
32877;DHT22;19226;51.600;8.034;2022-11-20T00:29:23;-2.30;99.90
32877;DHT22;19226;51.600;8.034;2022-11-20T00:32:11;-2.30;99.90
32877;DHT22;19226;51.600;8.034;2022-11-20T00:34:56;-2.30;99.90
32877;DHT22;19226;51.600;8.034;2022-11-20T00:37:43;-2.40;99.90
32877;DHT22;19226;51.600;8.034;2022-11-20T00:40:29;-2.40;99.90
32877;DHT22;19226;51.600;8.034;2022-11-20T00:43:15;-2.40;99.90
32877;DHT22;19226;51.600;8.034;2022-11-20T00:46:04;-2.40;99.90
32877;DHT22;19226;51.600;8.034;2022-11-20T00:48:52;-2.40;99.90
32877;DHT22;19226;51.600;8.034;2022-11-20T00:51:39;-2.40;99.90
32877;DHT22;19226;51.600;8.034;2022-11-20T00:54:27;-2.40;99.90
32877;DHT22;19226;51.600;8.034;2022-11-20T01:59:07;-2.70;99.90
32877;DHT22;19226;51.600;8.034;2022-11-20T02:01:33;-2.70;99.90
32877;DHT22;19226;51.600;8.034;2022-11-20T02:04:02;-2.70;99.90
32877;DHT22;19226;51.600;8.034;2022-11-20T02:09:14;-2.70;99.90
32877;DHT22;19226;51.600;8.034;2022-11-20T02:11:48;-2.70;99.90
32877;DHT22;19226;51.600;8.034;2022-11-20T02:14:15;-2.60;99.90
32877;DHT22;19226;51.600;8.034;2022-11-20T02:16:49;-2.60;99.90
32877;DHT22;19226;51.600;8.034;2022-11-20T02:21:47;-2.70;99.90
32877;DHT22;19226;51.600;8.034;2022-11-20T02:24:15;-2.70;99.90
32877;DHT22;19226;51.600;8.034;2022-11-20T02:27:03;-2.80;99.90
32877;DHT22;19226;51.600;8.034;2022-11-20T02:29:46;-2.80;99.90
32877;DHT22;19226;51.600;8.034;2022-11-20T02:32:20;-2.80;99.90
32877;DHT22;19226;51.600;8.034;2022-11-20T02:34:47;-2.70;99.90
32877;DHT22;19226;51.600;8.034;2022-11-20T02:37:13;-2.70;99.90
32877;DHT22;19226;51.600;8.034;2022-11-20T02:39:41;-2.70;99.90
32877;DHT22;19226;51.600;8.034;2022-11-20T02:42:07;-2.60;99.90
32877;DHT22;19226;51.600;8.034;2022-11-20T02:47:26;-2.50;99.90
32877;DHT22;19226;51.600;8.034;2022-11-20T02:49:53;-2.50;99.90
32877;DHT22;19226;51.600;8.034;2022-11-20T02:52:19;-2.50;99.90
32877;DHT22;19226;51.600;8.034;2022-11-20T02:54:45;-2.40;99.90
32877;DHT22;19226;51.600;8.034;2022-11-20T02:57:11;-2.40;99.90
32877;DHT22;19226;51.600;8.034;2022-11-20T03:02:23;-2.30;99.90
32877;DHT22;19226;51.600;8.034;2022-11-20T03:07:38;-2.20;99.90
32877;DHT22;19226;51.600;8.034;2022-11-20T03:12:53;-2.10;99.90
32877;DHT22;19226;51.600;8.034;2022-11-20T03:15:20;-2.00;99.90
32877;DHT22;19226;51.600;8.034;2022-11-20T03:17:47;-1.90;99.90
32877;DHT22;19226;51.600;8.034;2022-11-20T03:22:42;-1.90;99.90
32877;DHT22;19226;51.600;8.034;2022-11-20T03:25:08;-1.80;99.90
32877;DHT22;19226;51.600;8.034;2022-11-20T03:27:35;-1.80;99.90
32877;DHT22;19226;51.600;8.034;2022-11-20T03:30:03;-1.70;99.90
32877;DHT22;19226;51.600;8.034;2022-11-20T03:32:32;-1.70;99.90
32877;DHT22;19226;51.600;8.034;2022-11-20T03:34:59;-1.60;99.90
32877;DHT22;19226;51.600;8.034;2022-11-20T03:37:25;-1.60;99.90
32877;DHT22;19226;51.600;8.034;2022-11-20T03:39:57;-1.60;99.90
32877;DHT22;19226;51.600;8.034;2022-11-20T03:42:23;-1.50;99.90
32877;DHT22;19226;51.600;8.034;2022-11-20T03:45:12;-1.40;99.90
32877;DHT22;19226;51.600;8.034;2022-11-20T03:47:40;-1.30;99.90
32877;DHT22;19226;51.600;8.034;2022-11-20T03:50:06;-1.30;99.90
32877;DHT22;19226;51.600;8.034;2022-11-20T03:52:33;-1.20;99.90
32877;DHT22;19226;51.600;8.034;2022-11-20T03:55:08;-1.20;99.90
32877;DHT22;19226;51.600;8.034;2022-11-20T03:57:34;-1.10;99.90
32877;DHT22;19226;51.600;8.034;2022-11-20T04:00:00;-1.00;99.90
32877;DHT22;19226;51.600;8.034;2022-11-20T04:02:26;-1.00;99.90
32877;DHT22;19226;51.600;8.034;2022-11-20T04:04:52;-0.90;99.90
32877;DHT22;19226;51.600;8.034;2022-11-20T04:07:18;-0.90;99.90
32877;DHT22;19226;51.600;8.034;2022-11-20T04:09:44;-0.80;99.90
32877;DHT22;19226;51.600;8.034;2022-11-20T04:12:10;-0.80;99.90
32877;DHT22;19226;51.600;8.034;2022-11-20T04:14:36;-0.70;99.90
32877;DHT22;19226;51.600;8.034;2022-11-20T04:17:03;-0.70;99.90
32877;DHT22;19226;51.600;8.034;2022-11-20T04:19:29;-0.60;99.90
32877;DHT22;19226;51.600;8.034;2022-11-20T04:21:55;-0.60;99.90
32877;DHT22;19226;51.600;8.034;2022-11-20T04:24:23;-0.60;99.90
32877;DHT22;19226;51.600;8.034;2022-11-20T04:26:50;-0.50;99.90
32877;DHT22;19226;51.600;8.034;2022-11-20T04:29:16;-0.50;99.90
32877;DHT22;19226;51.600;8.034;2022-11-20T04:31:43;-0.40;99.90
32877;DHT22;19226;51.600;8.034;2022-11-20T04:34:10;-0.40;99.90
32877;DHT22;19226;51.600;8.034;2022-11-20T04:36:38;-0.30;99.90
32877;DHT22;19226;51.600;8.034;2022-11-20T04:39:05;-0.30;99.90
32877;DHT22;19226;51.600;8.034;2022-11-20T04:41:32;-0.30;99.90
32877;DHT22;19226;51.600;8.034;2022-11-20T04:43:59;-0.20;99.90
32877;DHT22;19226;51.600;8.034;2022-11-20T04:46:32;-0.20;99.90
32877;DHT22;19226;51.600;8.034;2022-11-20T04:48:58;-0.10;99.90
32877;DHT22;19226;51.600;8.034;2022-11-20T04:51:24;-0.10;99.90
32877;DHT22;19226;51.600;8.034;2022-11-20T04:53:53;0.00;99.90
32877;DHT22;19226;51.600;8.034;2022-11-20T04:56:20;0.00;99.90
32877;DHT22;19226;51.600;8.034;2022-11-20T04:58:47;0.00;99.90
32877;DHT22;19226;51.600;8.034;2022-11-20T05:04:06;0.10;99.90
32877;DHT22;19226;51.600;8.034;2022-11-20T05:06:32;0.10;99.90
32877;DHT22;19226;51.600;8.034;2022-11-20T05:08:58;0.20;99.90
32877;DHT22;19226;51.600;8.034;2022-11-20T05:11:24;0.20;99.90
32877;DHT22;19226;51.600;8.034;2022-11-20T05:13:52;0.20;99.90
32877;DHT22;19226;51.600;8.034;2022-11-20T05:16:18;0.20;99.90
32877;DHT22;19226;51.600;8.034;2022-11-20T05:21:56;0.30;99.90
32877;DHT22;19226;51.600;8.034;2022-11-20T05:24:24;0.40;99.90
32877;DHT22;19226;51.600;8.034;2022-11-20T05:26:50;0.40;99.90
32877;DHT22;19226;51.600;8.034;2022-11-20T05:29:16;0.40;99.90
32877;DHT22;19226;51.600;8.034;2022-11-20T05:31:42;0.40;99.90
32877;DHT22;19226;51.600;8.034;2022-11-20T05:34:15;0.50;99.90
32877;DHT22;19226;51.600;8.034;2022-11-20T05:36:41;0.50;99.90
32877;DHT22;19226;51.600;8.034;2022-11-20T05:42:17;0.60;99.90
32877;DHT22;19226;51.600;8.034;2022-11-20T05:45:04;0.60;99.90
32877;DHT22;19226;51.600;8.034;2022-11-20T05:50:33;0.70;99.90
32877;DHT22;19226;51.600;8.034;2022-11-20T05:52:59;0.70;99.90
32877;DHT22;19226;51.600;8.034;2022-11-20T05:55:26;0.70;99.90
32877;DHT22;19226;51.600;8.034;2022-11-20T05:57:52;0.70;99.90
32877;DHT22;19226;51.600;8.034;2022-11-20T06:00:19;0.80;99.90
32877;DHT22;19226;51.600;8.034;2022-11-20T06:02:45;0.80;99.90
32877;DHT22;19226;51.600;8.034;2022-11-20T06:05:23;0.80;99.90
32877;DHT22;19226;51.600;8.034;2022-11-20T06:07:49;0.80;99.90
32877;DHT22;19226;51.600;8.034;2022-11-20T06:10:34;0.80;99.90
32877;DHT22;19226;51.600;8.034;2022-11-20T06:13:00;0.80;99.90
32877;DHT22;19226;51.600;8.034;2022-11-20T06:15:27;0.80;99.90
32877;DHT22;19226;51.600;8.034;2022-11-20T06:17:53;0.80;99.90
32877;DHT22;19226;51.600;8.034;2022-11-20T06:23:05;0.80;99.90
32877;DHT22;19226;51.600;8.034;2022-11-20T06:25:32;0.80;99.90
32877;DHT22;19226;51.600;8.034;2022-11-20T06:27:58;0.80;99.90
32877;DHT22;19226;51.600;8.034;2022-11-20T06:30:24;0.80;99.90
32877;DHT22;19226;51.600;8.034;2022-11-20T06:32:52;0.80;99.90
32877;DHT22;19226;51.600;8.034;2022-11-20T06:35:18;0.80;99.90
32877;DHT22;19226;51.600;8.034;2022-11-20T06:37:44;0.80;99.90
32877;DHT22;19226;51.600;8.034;2022-11-20T06:40:11;0.70;99.90
32877;DHT22;19226;51.600;8.034;2022-11-20T06:42:37;0.70;99.90
32877;DHT22;19226;51.600;8.034;2022-11-20T06:45:04;0.70;99.90
32877;DHT22;19226;51.600;8.034;2022-11-20T06:47:30;0.70;99.90
32877;DHT22;19226;51.600;8.034;2022-11-20T06:49:56;0.70;99.90
32877;DHT22;19226;51.600;8.034;2022-11-20T06:52:22;0.60;99.90
32877;DHT22;19226;51.600;8.034;2022-11-20T06:54:47;0.70;99.90
32877;DHT22;19226;51.600;8.034;2022-11-20T06:57:13;0.60;99.90
32877;DHT22;19226;51.600;8.034;2022-11-20T06:59:39;0.60;99.90
32877;DHT22;19226;51.600;8.034;2022-11-20T07:02:05;0.50;99.90
32877;DHT22;19226;51.600;8.034;2022-11-20T07:04:32;0.50;99.90
32877;DHT22;19226;51.600;8.034;2022-11-20T07:06:58;0.50;99.90
32877;DHT22;19226;51.600;8.034;2022-11-20T07:09:25;0.50;99.90
32877;DHT22;19226;51.600;8.034;2022-11-20T07:11:50;0.50;99.90
32877;DHT22;19226;51.600;8.034;2022-11-20T07:14:20;0.50;99.90
32877;DHT22;19226;51.600;8.034;2022-11-20T07:16:46;0.40;99.90
32877;DHT22;19226;51.600;8.034;2022-11-20T07:19:13;0.40;99.90
32877;DHT22;19226;51.600;8.034;2022-11-20T07:21:38;0.40;99.90
32877;DHT22;19226;51.600;8.034;2022-11-20T07:24:07;0.40;99.90
32877;DHT22;19226;51.600;8.034;2022-11-20T07:26:33;0.30;99.90
32877;DHT22;19226;51.600;8.034;2022-11-20T07:28:59;0.30;99.90
32877;DHT22;19226;51.600;8.034;2022-11-20T07:31:26;0.20;99.90
32877;DHT22;19226;51.600;8.034;2022-11-20T07:33:52;0.20;99.90
32877;DHT22;19226;51.600;8.034;2022-11-20T07:36:19;0.20;99.90
32877;DHT22;19226;51.600;8.034;2022-11-20T07:38:46;0.20;99.90
32877;DHT22;19226;51.600;8.034;2022-11-20T07:41:12;0.20;99.90
32877;DHT22;19226;51.600;8.034;2022-11-20T07:43:40;0.20;99.90
32877;DHT22;19226;51.600;8.034;2022-11-20T07:46:06;0.20;99.90
32877;DHT22;19226;51.600;8.034;2022-11-20T07:48:34;0.20;99.90
32877;DHT22;19226;51.600;8.034;2022-11-20T07:51:00;0.10;99.90
32877;DHT22;19226;51.600;8.034;2022-11-20T07:56:12;0.00;99.90
32877;DHT22;19226;51.600;8.034;2022-11-20T07:58:39;0.00;99.90
32877;DHT22;19226;51.600;8.034;2022-11-20T08:01:09;0.10;99.90
32877;DHT22;19226;51.600;8.034;2022-11-20T08:03:35;0.00;99.90
32877;DHT22;19226;51.600;8.034;2022-11-20T08:06:04;0.00;99.90
32877;DHT22;19226;51.600;8.034;2022-11-20T08:08:30;0.00;99.90
32877;DHT22;19226;51.600;8.034;2022-11-20T08:10:57;0.10;99.90
32877;DHT22;19226;51.600;8.034;2022-11-20T08:13:43;0.00;99.90
32877;DHT22;19226;51.600;8.034;2022-11-20T08:16:27;0.10;99.90
32877;DHT22;19226;51.600;8.034;2022-11-20T08:18:55;0.10;99.90
32877;DHT22;19226;51.600;8.034;2022-11-20T08:21:21;0.20;99.90
32877;DHT22;19226;51.600;8.034;2022-11-20T08:24:01;0.10;99.90
32877;DHT22;19226;51.600;8.034;2022-11-20T08:26:28;0.20;99.90
32877;DHT22;19226;51.600;8.034;2022-11-20T08:29:07;0.20;99.90
32877;DHT22;19226;51.600;8.034;2022-11-20T08:31:33;0.20;99.90
32877;DHT22;19226;51.600;8.034;2022-11-20T08:33:59;0.30;99.90
32877;DHT22;19226;51.600;8.034;2022-11-20T08:36:25;0.30;99.90
32877;DHT22;19226;51.600;8.034;2022-11-20T08:38:52;0.40;99.90
32877;DHT22;19226;51.600;8.034;2022-11-20T08:44:02;0.50;99.90
32877;DHT22;19226;51.600;8.034;2022-11-20T08:49:17;0.60;99.90
32877;DHT22;19226;51.600;8.034;2022-11-20T08:51:43;0.60;99.90
32877;DHT22;19226;51.600;8.034;2022-11-20T08:54:10;0.70;99.90
32877;DHT22;19226;51.600;8.034;2022-11-20T08:56:36;0.80;99.90
32877;DHT22;19226;51.600;8.034;2022-11-20T09:02:08;0.90;99.90
32877;DHT22;19226;51.600;8.034;2022-11-20T09:07:20;1.10;99.90
32877;DHT22;19226;51.600;8.034;2022-11-20T09:09:50;1.20;99.90
32877;DHT22;19226;51.600;8.034;2022-11-20T09:12:16;1.30;99.90
32877;DHT22;19226;51.600;8.034;2022-11-20T09:17:35;1.30;99.90
32877;DHT22;19226;51.600;8.034;2022-11-20T09:23:05;1.50;99.90
32877;DHT22;19226;51.600;8.034;2022-11-20T09:25:31;1.60;99.90
32877;DHT22;19226;51.600;8.034;2022-11-20T09:27:59;1.80;99.90
32877;DHT22;19226;51.600;8.034;2022-11-20T09:30:26;1.80;99.90
32877;DHT22;19226;51.600;8.034;2022-11-20T09:35:44;2.00;99.90
32877;DHT22;19226;51.600;8.034;2022-11-20T09:43:54;2.30;99.90
32877;DHT22;19226;51.600;8.034;2022-11-20T09:46:33;2.40;99.90
32877;DHT22;19226;51.600;8.034;2022-11-20T09:51:35;2.70;99.90
32877;DHT22;19226;51.600;8.034;2022-11-20T09:54:13;2.80;99.90
32877;DHT22;19226;51.600;8.034;2022-11-20T09:56:41;2.90;99.90
32877;DHT22;19226;51.600;8.034;2022-11-20T09:59:23;2.90;99.90
32877;DHT22;19226;51.600;8.034;2022-11-20T10:01:52;3.00;99.90
32877;DHT22;19226;51.600;8.034;2022-11-20T10:04:20;3.10;99.90
32877;DHT22;19226;51.600;8.034;2022-11-20T10:06:52;3.30;99.90
32877;DHT22;19226;51.600;8.034;2022-11-20T10:09:40;3.40;99.90
32877;DHT22;19226;51.600;8.034;2022-11-20T10:12:17;3.50;99.90
32877;DHT22;19226;51.600;8.034;2022-11-20T10:15:01;3.70;99.90
32877;DHT22;19226;51.600;8.034;2022-11-20T10:17:54;3.80;99.90
32877;DHT22;19226;51.600;8.034;2022-11-20T10:25:32;4.00;99.90
32877;DHT22;19226;51.600;8.034;2022-11-20T10:30:34;4.30;99.90
32877;DHT22;19226;51.600;8.034;2022-11-20T10:33:05;4.40;99.90
32877;DHT22;19226;51.600;8.034;2022-11-20T10:35:36;4.50;99.90
32877;DHT22;19226;51.600;8.034;2022-11-20T10:38:06;4.60;99.90
32877;DHT22;19226;51.600;8.034;2022-11-20T10:40:44;4.70;99.90
32877;DHT22;19226;51.600;8.034;2022-11-20T10:43:14;4.90;99.90
32877;DHT22;19226;51.600;8.034;2022-11-20T10:48:30;5.00;99.90
32877;DHT22;19226;51.600;8.034;2022-11-20T11:01:43;5.40;99.90
32877;DHT22;19226;51.600;8.034;2022-11-20T11:06:58;5.40;99.90
32877;DHT22;19226;51.600;8.034;2022-11-20T11:12:25;5.40;99.90
32877;DHT22;19226;51.600;8.034;2022-11-20T11:15:04;5.50;99.90
32877;DHT22;19226;51.600;8.034;2022-11-20T11:17:33;5.60;99.90
32877;DHT22;19226;51.600;8.034;2022-11-20T11:20:20;5.60;99.90
32877;DHT22;19226;51.600;8.034;2022-11-20T11:22:51;5.80;99.90
32877;DHT22;19226;51.600;8.034;2022-11-20T11:25:32;5.90;99.90
32877;DHT22;19226;51.600;8.034;2022-11-20T11:28:25;5.90;99.90
32877;DHT22;19226;51.600;8.034;2022-11-20T11:30:51;6.10;99.90
32877;DHT22;19226;51.600;8.034;2022-11-20T11:36:14;6.20;99.90
32877;DHT22;19226;51.600;8.034;2022-11-20T11:38:42;6.30;99.90
32877;DHT22;19226;51.600;8.034;2022-11-20T11:41:16;6.40;99.90
32877;DHT22;19226;51.600;8.034;2022-11-20T11:43:52;6.40;99.90
32877;DHT22;19226;51.600;8.034;2022-11-20T11:47:20;6.50;99.90
32877;DHT22;19226;51.600;8.034;2022-11-20T11:50:01;6.50;99.90
32877;DHT22;19226;51.600;8.034;2022-11-20T11:52:30;6.40;99.90
32877;DHT22;19226;51.600;8.034;2022-11-20T11:54:58;6.40;99.90
32877;DHT22;19226;51.600;8.034;2022-11-20T11:57:28;6.50;99.90
32877;DHT22;19226;51.600;8.034;2022-11-20T12:05:19;6.60;99.90
32877;DHT22;19226;51.600;8.034;2022-11-20T12:07:52;6.60;99.90
32877;DHT22;19226;51.600;8.034;2022-11-20T12:13:09;6.50;99.90
32877;DHT22;19226;51.600;8.034;2022-11-20T12:19:53;6.60;99.90
32877;DHT22;19226;51.600;8.034;2022-11-20T12:23:22;6.50;99.90
32877;DHT22;19226;51.600;8.034;2022-11-20T12:25:40;6.50;99.90
32877;DHT22;19226;51.600;8.034;2022-11-20T12:30:51;6.60;99.90
32877;DHT22;19226;51.600;8.034;2022-11-20T12:43:43;6.50;99.90
32877;DHT22;19226;51.600;8.034;2022-11-20T12:49:20;6.50;99.90
32877;DHT22;19226;51.600;8.034;2022-11-20T12:54:47;6.40;99.90
32877;DHT22;19226;51.600;8.034;2022-11-20T13:00:14;6.30;99.90
32877;DHT22;19226;51.600;8.034;2022-11-20T13:08:33;6.30;99.90
32877;DHT22;19226;51.600;8.034;2022-11-20T13:16:33;6.10;99.90
32877;DHT22;19226;51.600;8.034;2022-11-20T13:19:09;6.10;99.90
32877;DHT22;19226;51.600;8.034;2022-11-20T13:21:37;6.10;99.90
32877;DHT22;19226;51.600;8.034;2022-11-20T13:27:17;6.00;99.90
32877;DHT22;19226;51.600;8.034;2022-11-20T13:29:58;6.00;99.90
32877;DHT22;19226;51.600;8.034;2022-11-20T13:32:27;6.10;99.90
32877;DHT22;19226;51.600;8.034;2022-11-20T13:35:03;6.20;99.90
32877;DHT22;19226;51.600;8.034;2022-11-20T13:37:31;6.10;99.90
32877;DHT22;19226;51.600;8.034;2022-11-20T13:42:43;6.10;99.90
32877;DHT22;19226;51.600;8.034;2022-11-20T13:45:23;6.00;99.90
32877;DHT22;19226;51.600;8.034;2022-11-20T13:47:49;6.00;99.90
32877;DHT22;19226;51.600;8.034;2022-11-20T13:50:17;6.00;99.90
32877;DHT22;19226;51.600;8.034;2022-11-20T13:58:16;5.90;99.90
32877;DHT22;19226;51.600;8.034;2022-11-20T14:00:56;5.90;99.90
32877;DHT22;19226;51.600;8.034;2022-11-20T14:03:24;5.90;99.90
32877;DHT22;19226;51.600;8.034;2022-11-20T14:05:59;5.90;99.90
32877;DHT22;19226;51.600;8.034;2022-11-20T14:08:38;5.80;99.90
32877;DHT22;19226;51.600;8.034;2022-11-20T14:11:13;5.80;99.90
32877;DHT22;19226;51.600;8.034;2022-11-20T14:13:39;5.80;99.90
32877;DHT22;19226;51.600;8.034;2022-11-20T14:16:36;5.80;99.90
32877;DHT22;19226;51.600;8.034;2022-11-20T14:22:10;5.70;99.90
32877;DHT22;19226;51.600;8.034;2022-11-20T14:24:37;5.70;99.90
32877;DHT22;19226;51.600;8.034;2022-11-20T14:27:03;5.60;99.90
32877;DHT22;19226;51.600;8.034;2022-11-20T14:29:34;5.60;99.90
32877;DHT22;19226;51.600;8.034;2022-11-20T14:32:01;5.50;99.90
32877;DHT22;19226;51.600;8.034;2022-11-20T14:34:44;5.40;99.90
32877;DHT22;19226;51.600;8.034;2022-11-20T14:37:12;5.30;99.90
32877;DHT22;19226;51.600;8.034;2022-11-20T14:39:47;5.20;99.90
32877;DHT22;19226;51.600;8.034;2022-11-20T14:42:26;5.20;99.90
32877;DHT22;19226;51.600;8.034;2022-11-20T14:44:55;5.20;99.90
32877;DHT22;19226;51.600;8.034;2022-11-20T14:47:22;5.20;99.90
32877;DHT22;19226;51.600;8.034;2022-11-20T14:49:53;5.10;99.90
32877;DHT22;19226;51.600;8.034;2022-11-20T14:52:21;5.00;99.90
32877;DHT22;19226;51.600;8.034;2022-11-20T14:57:35;4.80;99.90
32877;DHT22;19226;51.600;8.034;2022-11-20T15:00:18;4.70;99.90
32877;DHT22;19226;51.600;8.034;2022-11-20T15:03:13;4.70;99.90
32877;DHT22;19226;51.600;8.034;2022-11-20T15:05:46;4.60;99.90
32877;DHT22;19226;51.600;8.034;2022-11-20T15:08:13;4.60;99.90
32877;DHT22;19226;51.600;8.034;2022-11-20T15:10:44;4.60;99.90
32877;DHT22;19226;51.600;8.034;2022-11-20T15:13:15;4.60;99.90
32877;DHT22;19226;51.600;8.034;2022-11-20T15:15:47;4.60;99.90
32877;DHT22;19226;51.600;8.034;2022-11-20T15:18:19;4.60;99.90
32877;DHT22;19226;51.600;8.034;2022-11-20T15:20:45;4.60;99.90
32877;DHT22;19226;51.600;8.034;2022-11-20T15:23:16;4.70;99.90
32877;DHT22;19226;51.600;8.034;2022-11-20T15:25:46;4.70;99.90
32877;DHT22;19226;51.600;8.034;2022-11-20T15:30:57;4.70;99.90
32877;DHT22;19226;51.600;8.034;2022-11-20T15:33:23;4.70;99.90
32877;DHT22;19226;51.600;8.034;2022-11-20T15:38:36;4.60;99.90
32877;DHT22;19226;51.600;8.034;2022-11-20T15:41:02;4.60;99.90
32877;DHT22;19226;51.600;8.034;2022-11-20T15:43:29;4.60;99.90
32877;DHT22;19226;51.600;8.034;2022-11-20T15:45:56;4.60;99.90
32877;DHT22;19226;51.600;8.034;2022-11-20T15:48:37;4.60;99.90
32877;DHT22;19226;51.600;8.034;2022-11-20T15:53:37;4.50;99.90
32877;DHT22;19226;51.600;8.034;2022-11-20T15:56:03;4.50;99.90
32877;DHT22;19226;51.600;8.034;2022-11-20T15:58:30;4.50;99.90
32877;DHT22;19226;51.600;8.034;2022-11-20T16:00:56;4.50;99.90
32877;DHT22;19226;51.600;8.034;2022-11-20T16:03:22;4.50;99.90
32877;DHT22;19226;51.600;8.034;2022-11-20T16:05:50;4.50;99.90
32877;DHT22;19226;51.600;8.034;2022-11-20T16:08:17;4.50;99.90
32877;DHT22;19226;51.600;8.034;2022-11-20T16:10:43;4.50;99.90
32877;DHT22;19226;51.600;8.034;2022-11-20T16:13:13;4.50;99.90
32877;DHT22;19226;51.600;8.034;2022-11-20T16:15:58;4.50;99.90
32877;DHT22;19226;51.600;8.034;2022-11-20T16:18:27;4.50;99.90
32877;DHT22;19226;51.600;8.034;2022-11-20T16:20:56;4.40;99.90
32877;DHT22;19226;51.600;8.034;2022-11-20T16:23:24;4.30;99.90
32877;DHT22;19226;51.600;8.034;2022-11-20T16:25:50;4.30;99.90
32877;DHT22;19226;51.600;8.034;2022-11-20T16:28:17;4.30;99.90
32877;DHT22;19226;51.600;8.034;2022-11-20T16:30:50;4.30;99.90
32877;DHT22;19226;51.600;8.034;2022-11-20T16:33:17;4.20;99.90
32877;DHT22;19226;51.600;8.034;2022-11-20T16:35:43;4.30;99.90
32877;DHT22;19226;51.600;8.034;2022-11-20T16:38:10;4.20;99.90
32877;DHT22;19226;51.600;8.034;2022-11-20T16:40:36;4.20;99.90
32877;DHT22;19226;51.600;8.034;2022-11-20T16:43:10;4.20;99.90
32877;DHT22;19226;51.600;8.034;2022-11-20T16:45:43;4.20;99.90
32877;DHT22;19226;51.600;8.034;2022-11-20T16:51:15;4.10;99.90
32877;DHT22;19226;51.600;8.034;2022-11-20T16:53:41;4.10;99.90
32877;DHT22;19226;51.600;8.034;2022-11-20T16:56:15;4.00;99.90
32877;DHT22;19226;51.600;8.034;2022-11-20T16:58:43;4.10;99.90
32877;DHT22;19226;51.600;8.034;2022-11-20T17:04:14;4.00;99.90
32877;DHT22;19226;51.600;8.034;2022-11-20T17:06:42;4.00;99.90
32877;DHT22;19226;51.600;8.034;2022-11-20T17:09:12;4.00;99.90
32877;DHT22;19226;51.600;8.034;2022-11-20T17:11:38;4.00;99.90
32877;DHT22;19226;51.600;8.034;2022-11-20T17:14:05;4.00;99.90
32877;DHT22;19226;51.600;8.034;2022-11-20T17:16:35;4.00;99.90
32877;DHT22;19226;51.600;8.034;2022-11-20T17:19:01;4.00;99.90
32877;DHT22;19226;51.600;8.034;2022-11-20T17:21:28;4.00;99.90
32877;DHT22;19226;51.600;8.034;2022-11-20T17:23:54;3.90;99.90
32877;DHT22;19226;51.600;8.034;2022-11-20T17:26:22;3.90;99.90
32877;DHT22;19226;51.600;8.034;2022-11-20T17:28:52;3.90;99.90
32877;DHT22;19226;51.600;8.034;2022-11-20T17:34:04;3.90;99.90
32877;DHT22;19226;51.600;8.034;2022-11-20T17:36:35;4.00;99.90
32877;DHT22;19226;51.600;8.034;2022-11-20T17:39:01;4.00;99.90
32877;DHT22;19226;51.600;8.034;2022-11-20T17:41:28;4.00;99.90
32877;DHT22;19226;51.600;8.034;2022-11-20T17:43:55;4.00;99.90
32877;DHT22;19226;51.600;8.034;2022-11-20T17:46:26;4.00;99.90
32877;DHT22;19226;51.600;8.034;2022-11-20T17:48:52;4.00;99.90
32877;DHT22;19226;51.600;8.034;2022-11-20T17:51:19;4.00;99.90
32877;DHT22;19226;51.600;8.034;2022-11-20T17:53:47;4.00;99.90
32877;DHT22;19226;51.600;8.034;2022-11-20T17:56:14;4.00;99.90
32877;DHT22;19226;51.600;8.034;2022-11-20T17:59:05;4.00;99.90
32877;DHT22;19226;51.600;8.034;2022-11-20T18:01:31;4.00;99.90
32877;DHT22;19226;51.600;8.034;2022-11-20T18:03:58;3.90;99.90
32877;DHT22;19226;51.600;8.034;2022-11-20T18:06:25;3.90;99.90
32877;DHT22;19226;51.600;8.034;2022-11-20T18:11:39;3.90;99.90
32877;DHT22;19226;51.600;8.034;2022-11-20T18:14:07;3.90;99.90
32877;DHT22;19226;51.600;8.034;2022-11-20T18:22:32;3.90;99.90
32877;DHT22;19226;51.600;8.034;2022-11-20T18:27:49;3.90;99.90
32877;DHT22;19226;51.600;8.034;2022-11-20T18:30:16;3.90;99.90
32877;DHT22;19226;51.600;8.034;2022-11-20T18:32:42;3.90;99.90
32877;DHT22;19226;51.600;8.034;2022-11-20T18:37:39;3.90;99.90
32877;DHT22;19226;51.600;8.034;2022-11-20T18:40:05;3.90;99.90
32877;DHT22;19226;51.600;8.034;2022-11-20T18:42:31;3.90;99.90
32877;DHT22;19226;51.600;8.034;2022-11-20T18:45:16;3.90;99.90
32877;DHT22;19226;51.600;8.034;2022-11-20T18:47:43;3.90;99.90
32877;DHT22;19226;51.600;8.034;2022-11-20T18:50:09;3.80;99.90
32877;DHT22;19226;51.600;8.034;2022-11-20T18:52:39;3.90;99.90
32877;DHT22;19226;51.600;8.034;2022-11-20T18:55:06;3.80;99.90
32877;DHT22;19226;51.600;8.034;2022-11-20T18:57:44;3.80;99.90
32877;DHT22;19226;51.600;8.034;2022-11-20T19:02:56;3.80;99.90
32877;DHT22;19226;51.600;8.034;2022-11-20T19:05:22;3.80;99.90
32877;DHT22;19226;51.600;8.034;2022-11-20T19:07:48;3.80;99.90
32877;DHT22;19226;51.600;8.034;2022-11-20T19:13:19;3.70;99.90
32877;DHT22;19226;51.600;8.034;2022-11-20T19:18:33;3.80;99.90
32877;DHT22;19226;51.600;8.034;2022-11-20T19:21:13;3.70;99.90
32877;DHT22;19226;51.600;8.034;2022-11-20T19:23:59;3.70;99.90
32877;DHT22;19226;51.600;8.034;2022-11-20T19:26:25;3.70;99.90
32877;DHT22;19226;51.600;8.034;2022-11-20T19:28:57;3.70;99.90
32877;DHT22;19226;51.600;8.034;2022-11-20T19:31:24;3.70;99.90
32877;DHT22;19226;51.600;8.034;2022-11-20T19:33:58;3.60;99.90
32877;DHT22;19226;51.600;8.034;2022-11-20T19:39:11;3.60;99.90
32877;DHT22;19226;51.600;8.034;2022-11-20T19:41:38;3.60;99.90
32877;DHT22;19226;51.600;8.034;2022-11-20T19:44:05;3.60;99.90
32877;DHT22;19226;51.600;8.034;2022-11-20T19:46:34;3.60;99.90
32877;DHT22;19226;51.600;8.034;2022-11-20T19:49:01;3.60;99.90
32877;DHT22;19226;51.600;8.034;2022-11-20T19:54:15;3.60;99.90
32877;DHT22;19226;51.600;8.034;2022-11-20T19:56:42;3.50;99.90
32877;DHT22;19226;51.600;8.034;2022-11-20T20:02:01;3.60;99.90
32877;DHT22;19226;51.600;8.034;2022-11-20T20:04:28;3.50;99.90
32877;DHT22;19226;51.600;8.034;2022-11-20T20:06:55;3.50;99.90
32877;DHT22;19226;51.600;8.034;2022-11-20T20:09:21;3.50;99.90
32877;DHT22;19226;51.600;8.034;2022-11-20T20:11:48;3.50;99.90
32877;DHT22;19226;51.600;8.034;2022-11-20T20:14:14;3.50;99.90
32877;DHT22;19226;51.600;8.034;2022-11-20T20:16:42;3.50;99.90
32877;DHT22;19226;51.600;8.034;2022-11-20T20:19:12;3.50;99.90
32877;DHT22;19226;51.600;8.034;2022-11-20T20:21:39;3.50;99.90
32877;DHT22;19226;51.600;8.034;2022-11-20T20:24:13;3.50;99.90
32877;DHT22;19226;51.600;8.034;2022-11-20T20:26:39;3.50;99.90
32877;DHT22;19226;51.600;8.034;2022-11-20T20:29:05;3.40;99.90
32877;DHT22;19226;51.600;8.034;2022-11-20T20:31:32;3.50;99.90
32877;DHT22;19226;51.600;8.034;2022-11-20T20:33:58;3.50;99.90
32877;DHT22;19226;51.600;8.034;2022-11-20T20:36:25;3.40;99.90